Flight Track Log - Related Links

Times and Time Zones

All times are in EDT time to prevent confusion due to time zone crossing. See the SWA2166 flight status page for this flight to view local times or setup timezone preferences in your user account.

Time Position Orientation Groundspeed Altitude Reporting Facility
EDT Latitude Longitude Course Direction KTS MPH feet Rate Location/Type
Sat 08:44:49 AM 39.1667 -76.7500 171° South 198 228 2,400  Level Potomac TRACON
Sat 08:45:49 AM 39.1167 -76.7333 165° South 250 288 4,600 2,450 Climbing Potomac TRACON
Sat 08:46:49 AM 39.0500 -76.6667 142° Southeast 277 319 7,300 2,842 Climbing Potomac TRACON
Sat 08:47:43 AM 39.0000 -76.6000 134° Southeast 293 337 10,000 2,105 Climbing Potomac TRACON
Sat 08:48:43 AM 38.9333 -76.5333 142° Southeast 344 396 11,300 1,776 Climbing Potomac TRACON
Sat 08:50:00 AM 38.4882 -76.7076 171° South  Level FlightAware Approximate
Sat 08:50:15 AM 38.8114 -76.5881 199° South 342 394 14,500  Level Washington Center
Sat 08:51:16 AM 38.7253 -76.6347 203° Southwest 342 394 17,200 2,000 Climbing Washington Center
Sat 08:52:18 AM 38.6331 -76.6867 204° Southwest 348 400 18,600 1,574 Climbing Washington Center
Sat 08:53:18 AM 38.5369 -76.7278 199° South 359 413 20,400 1,525 Climbing Washington Center
Sat 08:54:16 AM 38.4308 -76.7128 174° South 369 425 21,600 1,664 Climbing Washington Center
Sat 08:55:17 AM 38.3183 -76.6978 174° South 383 441 23,700 1,664 Climbing Washington Center
Sat 08:56:15 AM 38.1975 -76.6775 172° South 395 455 24,900 1,361 Climbing Washington Center
Sat 08:57:16 AM 38.0831 -76.6628 174° South 408 470 26,400 1,339 Climbing Washington Center
Sat 08:58:16 AM 37.9683 -76.6481 174° South 408 470 27,600 992 Climbing Washington Center
Sat 08:59:17 AM 37.8536 -76.6594 184° South 408 470 28,400 1,041 Climbing Washington Center
Sat 09:00:17 AM 37.7367 -76.6736 185° South 420 483 29,700 1,240 Climbing Washington Center
Sat 09:01:18 AM 37.6217 -76.6878 186° South 427 491 30,900 1,008 Climbing Washington Center
Sat 09:02:16 AM 37.5047 -76.7019 185° South 427 491 31,700 555 Climbing Washington Center
Sat 09:03:17 AM 37.3856 -76.7342 192° South 427 491 32,000 149 Climbing Washington Center
Sat 09:04:17 AM 37.2831 -76.7742 197° South 427 491 32,000  Level Washington Center
Sat 09:05:18 AM 37.1700 -76.8247 200° South 434 499 32,000 545 Level Washington Center
Sat 09:06:18 AM 37.0589 -76.8722 199° South 439 505 33,100 864 Climbing Washington Center
Sat 09:07:16 AM 36.9478 -76.9200 199° South 429 494 33,700 450 Climbing Washington Center
Sat 09:08:18 AM 36.8347 -76.9647 198° South 429 494 34,000 150 Climbing Washington Center
Sat 09:09:16 AM 36.7236 -77.0119 199° South 429 494 34,000  Level Washington Center
Sat 09:10:17 AM 36.6103 -77.0592 198° South 429 494 34,000  Level Washington Center
Sat 09:11:17 AM 36.5011 -77.1036 198° South 429 494 34,000  Level Washington Center
Sat 09:12:18 AM 36.3900 -77.1506 199° South 424 488 34,000  Level Washington Center
Sat 09:13:18 AM 36.2811 -77.1919 197° South 424 488 34,000  Level Washington Center
Sat 09:14:18 AM 36.1633 -77.2436 200° South 429 494 34,000  Level Washington Center
Sat 09:15:16 AM 36.0503 -77.2875 197° South 422 486 34,000  Level Washington Center
Sat 09:16:17 AM 35.9389 -77.3314 198° South 422 486 34,000  Level Washington Center
Sat 09:17:18 AM 35.8278 -77.3775 199° South 427 491 34,000  Level Washington Center
Sat 09:18:18 AM 35.7389 -77.4500 214° Southwest 427 491 34,000  Level Washington Center
Sat 09:19:16 AM 35.6436 -77.5397 217° Southwest 427 491 34,000  Level Washington Center
Sat 09:20:16 AM 35.5483 -77.6292 217° Southwest 437 503 34,000  Level Washington Center
Sat 09:21:17 AM 35.4528 -77.7186 217° Southwest 437 503 34,000  Level Washington Center
Sat 09:22:18 AM 35.3572 -77.8103 218° Southwest 442 509 34,000  Level Washington Center
Sat 09:23:18 AM 35.2594 -77.9017 217° Southwest 442 509 34,000  Level Washington Center
Sat 09:24:15 AM 35.1619 -77.9878 216° Southwest 442 509 34,000  Level Washington Center
Sat 09:25:16 AM 35.0661 -78.0789 218° Southwest 442 509 34,000  Level Washington Center
Sat 09:26:16 AM 34.9703 -78.1697 218° Southwest 442 509 34,000  Level Washington Center
Sat 09:27:17 AM 34.8703 -78.2603 217° Southwest 442 509 34,000  Level Washington Center
Sat 09:28:17 AM 34.7678 -78.3656 220° Southwest 442 509 34,000  Level Washington Center
Sat 09:30:15 AM 34.5786 -78.5303 216° Southwest 443 510 34,000  Level Jacksonville Center
Sat 09:31:15 AM 34.4739 -78.6336 219° Southwest 443 510 34,000  Level Jacksonville Center
Sat 09:32:15 AM 34.3767 -78.7189 216° Southwest 448 516 34,000  Level Jacksonville Center
Sat 09:33:15 AM 34.2658 -78.7744 203° Southwest 442 509 34,000  Level Jacksonville Center
Sat 09:34:15 AM 34.1508 -78.8303 202° Southwest 437 503 34,000  Level Jacksonville Center
Sat 09:35:15 AM 34.0397 -78.8856 202° Southwest 443 510 34,000  Level Jacksonville Center
Sat 09:36:15 AM 33.9269 -78.9406 202° Southwest 443 510 34,000  Level Jacksonville Center
Sat 09:37:15 AM 33.8158 -78.9956 202° Southwest 443 510 34,000  Level Jacksonville Center
Sat 09:38:15 AM 33.7028 -79.0481 201° Southwest 443 510 34,000  Level Jacksonville Center
Sat 09:39:15 AM 33.5917 -79.1053 203° Southwest 443 510 34,000  Level Jacksonville Center
Sat 09:40:15 AM 33.4950 -79.1492 201° Southwest 424 488 34,000  Level Jacksonville Center
Sat 09:41:15 AM 33.3839 -79.2036 202° Southwest 424 488 34,000  Level Jacksonville Center
Sat 09:42:15 AM 33.2750 -79.2578 203° Southwest 424 488 34,000  Level Jacksonville Center
Sat 09:43:15 AM 33.1636 -79.3094 201° Southwest 424 488 34,000  Level Jacksonville Center
Sat 09:44:15 AM 33.0544 -79.3633 202° Southwest 429 494 34,000  Level Jacksonville Center
Sat 09:45:15 AM 32.9433 -79.4172 202° Southwest 429 494 34,000  Level Jacksonville Center
Sat 09:46:15 AM 32.8364 -79.4708 203° Southwest 429 494 34,000  Level Jacksonville Center
Sat 09:47:15 AM 32.7250 -79.5244 202° Southwest 429 494 34,000  Level Jacksonville Center
Sat 09:48:15 AM 32.6158 -79.5778 202° Southwest 429 494 34,000  Level Jacksonville Center
Sat 09:49:15 AM 32.5064 -79.6286 201° Southwest 429 494 34,000  Level Jacksonville Center
Sat 09:50:15 AM 32.3972 -79.6842 203° Southwest 429 494 34,000  Level Jacksonville Center
Sat 09:51:15 AM 32.2858 -79.7372 202° Southwest 429 494 34,000  Level Jacksonville Center
Sat 09:52:15 AM 32.1786 -79.7878 202° Southwest 429 494 34,000  Level Jacksonville Center
Sat 09:53:15 AM 32.0672 -79.8428 203° Southwest 429 494 34,000  Level Jacksonville Center
Sat 09:54:15 AM 31.9597 -79.8931 202° Southwest 429 494 34,000  Level Jacksonville Center
Sat 09:55:15 AM 31.8419 -79.9458 201° Southwest 429 494 34,000  Level Jacksonville Center
Sat 09:56:15 AM 31.7347 -79.9981 203° Southwest 424 488 34,000  Level Jacksonville Center
Sat 09:57:15 AM 31.6253 -80.0525 203° Southwest 424 488 34,000  Level Jacksonville Center
Sat 09:58:15 AM 31.5136 -80.1047 202° Southwest 429 494 34,000  Level Jacksonville Center
Sat 09:59:15 AM 31.4022 -80.1567 202° Southwest 429 494 34,000  Level Jacksonville Center
Sat 10:00:15 AM 31.3072 -80.2033 203° Southwest 434 499 34,000  Level Jacksonville Center
Sat 10:01:15 AM 31.1892 -80.2503 199° South 434 499 34,000  Level Jacksonville Center
Sat 10:02:15 AM 31.0817 -80.3044 203° Southwest 434 499 34,000  Level Jacksonville Center
Sat 10:03:15 AM 30.9700 -80.3558 202° Southwest 428 493 34,000  Level Jacksonville Center
Sat 10:04:15 AM 30.8561 -80.4072 201° Southwest 434 499 34,000  Level Jacksonville Center
Sat 10:05:15 AM 30.7422 -80.4611 202° Southwest 434 499 34,000  Level Jacksonville Center
Sat 10:06:15 AM 30.6283 -80.5050 198° South 434 499 34,000  Level Jacksonville Center
Sat 10:07:15 AM 30.5142 -80.5489 198° South 434 499 34,000  Level Jacksonville Center
Sat 10:08:15 AM 30.3961 -80.5928 198° South 440 506 34,000  Level Jacksonville Center
Sat 10:09:15 AM 30.2778 -80.6317 196° South 440 506 34,000  Level Jacksonville Center
Sat 10:10:15 AM 30.1617 -80.6753 198° South 440 506 34,000 -50 Level Jacksonville Center
Sat 10:11:15 AM 30.0350 -80.7236 198° South 440 506 33,900 -1,700 Descending Jacksonville Center
Sat 10:12:15 AM 29.9169 -80.7669 198° South 440 506 30,600 -2,950 Descending Jacksonville Center
Sat 10:13:15 AM 29.7964 -80.8103 197° South 440 506 28,000 -2,500 Descending Jacksonville Center
Sat 10:14:15 AM 29.6844 -80.8533 198° South 440 506 25,600 -2,300 Descending Jacksonville Center
Sat 10:15:15 AM 29.5806 -80.8914 198° South 421 484 23,400 -2,150 Descending Jacksonville Center
Sat 10:16:15 AM 29.4769 -80.9292 198° South 405 466 21,300 -2,100 Descending Jacksonville Center
Sat 10:17:15 AM 29.3814 -80.9622 197° South 382 440 19,200 -1,950 Descending Jacksonville Center
Sat 10:18:15 AM 29.2881 -80.9950 197° South 369 425 17,400 -1,950 Descending Jacksonville Center
Sat 10:19:15 AM 29.1986 -81.0253 196° South 352 405 15,300 -2,050 Descending Jacksonville Center
Sat 10:20:15 AM 29.1094 -81.0578 198° South 341 392 13,300 -1,650 Descending Jacksonville Center
Sat 10:21:15 AM 29.0222 -81.0878 197° South 341 392 12,000 -1,050 Descending Jacksonville Center
Sat 10:22:15 AM 28.9406 -81.0822 177° South 305 351 11,200 -1,200 Descending Jacksonville Center
Sat 10:23:15 AM 28.8633 -81.0694 172° South 299 344 9,600 -1,550 Descending Jacksonville Center
Sat 10:24:15 AM 28.7881 -81.0636 176° South 287 330 8,100 -1,450 Descending Jacksonville Center
Sat 10:25:15 AM 28.7536 -81.1400 243° Southwest 231 266 6,700 -1,150 Descending Jacksonville Center
Sat 10:26:15 AM 28.7483 -81.2231 266° West 226 260 5,800 -1,100 Descending Jacksonville Center
Sat 10:27:15 AM 28.7008 -81.2547 210° Southwest 211 243 4,500 -900 Descending Jacksonville Center
Sat 10:28:15 AM 28.6467 -81.2697 194° South 194 223 4,000 -700 Descending Jacksonville Center
Sat 10:29:15 AM 28.6011 -81.2822 194° South 189 217 3,100 -898 Descending Jacksonville Center
Sat 10:30:42 AM 28.5333 -81.2833 181° South 171 197 1,800 -816 Descending Orlando TRACON
Sat 10:31:42 AM 28.5000 -81.2833 180° South 134 154 1,100 -694 Descending Orlando TRACON
Sat 10:32:43 AM 28.4500 -81.2833 180° South 141 162 400 -689 Descending Orlando TRACON
Sat 10:34:00 AM 28.4167 -81.3000 190° South  Level FlightAware Approximate
Sat 10:41:00 AM 28.4294 -81.3090 190° South  Level Estimated
Sat 10:42:00 AM 28.4294 -81.3090 190° South  Level Estimated
Sat 10:43:00 AM 28.4294 -81.3090 190° South  Level Estimated
Sat 10:44:00 AM 28.4294 -81.3090 190° South  Level Estimated

Login

Don't have an account? Register now (free) for customized features, flight alerts, and more!